Ukkonen Alkaa: 22-08-2019 09:00 Päättyy: 17:00 Varoitus: Ukkonen Taso: Keltainen info button
suomi:
Varoitus rajusta ukonilmasta: Päivällä kehittyy ukkoskuuroja, joiden yhteydessä esiintyy voimakkaita ukkospuuskia, yli 15 m/s.

svenska:
Varning för våldsamt åskväder: På dagen utvecklas åskskurar med kraftiga åskbyar, över 15 m/s.

english:
Severe thunderstorm warning: At noon and in the afternoon severe thunderstorms can produce strong wind gusts, over 15 m/s. 


Webkamera Lisätietoa Webcam


Varoitus: Ukkonen Lisätietoa

blitzortung!


Yksityisiä sääasemia lähellä:

Sääasema Juupajoki

Sääasema Orivesi

Sääasema Muurame

Sääasema Jyväskylä

Sääasema Vihtavuori


Löydät sääaseman tiedot myös:

Finland Weather Exchange

European Weather Network

Weather Underground

AWEKAS

Windy.com



Säätiedot lähimmiltä METAR asemilta

   
EFHA - Halli (Fin-Afb), Finland
Etäisyys asemalta: Kaakko 25 km
Päivitetty: 22.08.2019 09:50
Melkein pilvistä  
Melkein pilvistä  
   Tuuli: Länsilounas 3.1 m/s
Tuuli: Länsilounas 3.1 m/s
Lämpötila: 13°C
Kastepiste: 12°C
Kosteus: 94%
Ilmanpaine: 1019 hPa
Pilvisyys: Melkein pilvistä
Näkyvyys: Enemmän kuin 10 km
Pilvitiedot: Melkein pilvistä 122 m
EFHA 220650Z 25006KT 210V280 9999 BKN004 13/12 Q1019
EFJY - Jyvaskyla (Mil/Civ), Finland
Etäisyys asemalta: Koillinen 75 km
Päivitetty: 22.08.2019 09:50
Melkein pilvistä  
Melkein pilvistä  
   Tuuli: Länsilounas 4.1 m/s
Tuuli: Länsilounas 4.1 m/s
Lämpötila: 13°C
Kastepiste: 12°C
Kosteus: 94%
Ilmanpaine: 1019 hPa
Pilvisyys: Melkein pilvistä
Näkyvyys: Enemmän kuin 10 km
Pilvitiedot: Melkein pilvistä 183 m
EFJY 220650Z 25008KT 220V300 9999 BKN006 13/12 Q1019
EFTP - Tampere/Pirkkala, Finland
Etäisyys asemalta: Lounas 81 km
Päivitetty: 22.08.2019 09:50
Melkein pilvistä  
Melkein pilvistä  
   Tuuli: Länsilounas 3.6 m/s
Tuuli: Länsilounas 3.6 m/s
Lämpötila: 15°C
Kastepiste: 12°C
Kosteus: 82%
Ilmanpaine: 1021 hPa
Pilvisyys: Melkein pilvistä
Näkyvyys: Enemmän kuin 10 km
Pilvitiedot: Vähäistä pilvisyyttä 213 m,
Puolipilvistä 366 m,
Melkein pilvistä 2438 m
EFTP 220650Z 25007KT 9999 FEW007 SCT012 BKN080 15/12 Q1021
EFSI - Seinajoki-Ilmajoki, Finland
Etäisyys asemalta: Luode 114 km
Päivitetty: 22.08.2019 09:50
Selkeää  
Selkeää  
   Tuuli: Länsi 3.1 m/s
Tuuli: Länsi 3.1 m/s
Lämpötila: 15°C
Kastepiste: 10°C
Kosteus: 72%
Ilmanpaine: 1019 hPa
Näkyvyys: Enemmän kuin 10 km
Pilvitiedot: Selkeää
EFSI 220650Z AUTO 27006KT 210V320 CAVOK 15/10 Q1019
EFMI - Mikkeli, Finland
Etäisyys asemalta: Itäkaakko 147 km
Päivitetty: 22.08.2019 09:50
Melkein pilvistä  
Melkein pilvistä  
   Tuuli: Länsilounas 3.1 m/s
Tuuli: Länsilounas 3.1 m/s
Lämpötila: 16°C
Kastepiste: 12°C
Kosteus: 77%
Ilmanpaine: 1019 hPa
Pilvisyys: Melkein pilvistä
Näkyvyys: Enemmän kuin 10 km
Pilvitiedot: Melkein pilvistä 549 m
EFMI 220650Z AUTO 25006KT 210V300 9999 BKN018 16/12 Q1019
EFPO - Pori (Mil/Civ), Finland
Etäisyys asemalta: Länsilounas 154 km
Päivitetty: 22.08.2019 09:50
Melkein pilvistä  
Melkein pilvistä  
   Tuuli: Luode 4.6 m/s
Tuuli: Luode 4.6 m/s
Lämpötila: 16°C
Kastepiste: 11°C
Kosteus: 72%
Ilmanpaine: 1021 hPa
Pilvisyys: Melkein pilvistä
Näkyvyys: Enemmän kuin 10 km
Pilvitiedot: Vähäistä pilvisyyttä 366 m,
Melkein pilvistä 1890 m,
Melkein pilvistä 2499 m
EFPO 220650Z AUTO 32009KT 9999 FEW012/// BKN062/// BKN082/// 16/11 Q1021
EFUT - Utti (Fin-Afb), Finland
Etäisyys asemalta: Kaakko 180 km
Päivitetty: 22.08.2019 09:50
Vähäistä pilvisyyttä  
Vähäistä pilvisyyttä  
   Tuuli: Länsilounas 3.6 m/s
Tuuli: Länsilounas 3.6 m/s
Lämpötila: 16°C
Kastepiste: 13°C
Kosteus: 83%
Ilmanpaine: 1020 hPa
Pilvisyys: Vähäistä pilvisyyttä
Näkyvyys: Enemmän kuin 10 km
Pilvitiedot: Vähäistä pilvisyyttä 305 m
EFUT 220650Z 24007KT 9999 FEW010 16/13 Q1020
EFVA - Vaasa, Finland
Etäisyys asemalta: Luode 180 km
Päivitetty: 22.08.2019 09:50
Selkeää  
Selkeää  
   Tuuli: Länsilounas 4.6 m/s
Tuuli: Länsilounas 4.6 m/s
Lämpötila: 14°C
Kastepiste: 9°C
Kosteus: 72%
Ilmanpaine: 1019 hPa
Näkyvyys: Enemmän kuin 10 km
Pilvitiedot: Selkeää
EFVA 220650Z AUTO 25009KT CAVOK 14/09 Q1019
EFHK - Helsinki/Vantaa, Finland
Etäisyys asemalta: Etelä 191 km
Päivitetty: 22.08.2019 09:50
Vähäistä pilvisyyttä  
Vähäistä pilvisyyttä  
   Tuuli: Länsilounas 4.1 m/s
Tuuli: Länsilounas 4.1 m/s
Lämpötila: 16°C
Kastepiste: 14°C
Kosteus: 88%
Ilmanpaine: 1021 hPa
Pilvisyys: Vähäistä pilvisyyttä
Näkyvyys: Enemmän kuin 10 km
Pilvitiedot: Vähäistä pilvisyyttä 335 m
EFHK 220650Z 25008KT 210V270 9999 FEW011 16/14 Q1021 NOSIG

Alkuperäinen skripti  Saratoga-weather.org Sovitettu myös templatelle  Weerstation Leuven

Laitteet joita käytämme:

Sääasema
Davis VP2

Sääasemaohjelma
Cumulus

Sääaseman palvelin
HP ProBook 6460b

Palveluntarjoaja
Radicenter

Davis VP2

Cumulus

HP ProBook 6460b

Radicenter




Flag Counter Cumulus Top Weather Sites